Time;durP1;ratioP1;P1;durP2;ratioP2;P2;SDS_P1;SDS_P2;PMS_P1;PMS_P2;Temp;Humidity;BMP_temperature;BMP_pressure;BME280_temperature;BME280_humidity;BME280_pressure;Samples;Min_cycle;Max_cycle;Signal;HPM_P1;HPM_P2
2022/11/10 00:00:27;;;;;;;8.75;1.98;;;;;;;;;;5037447;28;20475;-79
2022/11/10 00:02:53;;;;;;;9.00;2.15;;;;;;;;;;5054194;28;20135;-78
2022/11/10 00:05:18;;;;;;;6.90;2.03;;;;;;;;;;5037319;28;20028;-78
2022/11/10 00:07:43;;;;;;;4.30;1.85;;;;;;;;;;5037200;28;20360;-78
2022/11/10 00:10:09;;;;;;;5.93;1.88;;;;;;;;;;5054230;28;20033;-78
2022/11/10 00:12:35;;;;;;;6.15;2.00;;;;;;;;;;5054751;28;20041;-78
2022/11/10 00:17:45;;;;;;;4.65;1.80;;;;;;;;;;5054106;28;20032;-78
2022/11/10 00:20:11;;;;;;;5.65;1.92;;;;;;;;;;5037005;28;20029;-78
2022/11/10 00:22:37;;;;;;;6.03;2.47;;;;;;;;;;5053669;28;20098;-78
2022/11/10 00:25:03;;;;;;;7.72;1.80;;;;;;;;;;5053618;28;20585;-79
2022/11/10 00:27:29;;;;;;;8.10;2.00;;;;;;;;;;5053782;28;20053;-78
2022/11/10 00:29:54;;;;;;;8.50;2.20;;;;;;;;;;5053526;28;20035;-78
2022/11/10 00:32:20;;;;;;;8.23;2.33;;;;;;;;;;5055293;28;20379;-78
2022/11/10 00:34:45;;;;;;;4.28;2.13;;;;;;;;;;5053392;28;20036;-78
2022/11/10 00:37:10;;;;;;;7.90;1.85;;;;;;;;;;5053342;28;20047;-78
2022/11/10 00:39:36;;;;;;;10.75;1.90;;;;;;;;;;5053352;28;20032;-79
2022/11/10 00:42:02;;;;;;;4.35;1.58;;;;;;;;;;5054717;28;20120;-79
2022/11/10 00:44:27;;;;;;;6.85;2.08;;;;;;;;;;5036761;28;20053;-78
2022/11/10 00:46:53;;;;;;;8.18;1.83;;;;;;;;;;5054499;28;20583;-78
2022/11/10 00:49:18;;;;;;;5.90;2.13;;;;;;;;;;5054479;28;20262;-78
2022/11/10 00:51:43;;;;;;;5.40;2.22;;;;;;;;;;5054838;28;20424;-79
2022/11/10 00:54:09;;;;;;;7.60;2.13;;;;;;;;;;5053116;28;20041;-79
2022/11/10 00:56:34;;;;;;;6.60;2.03;;;;;;;;;;5053446;28;20074;-79
2022/11/10 00:58:59;;;;;;;11.15;2.00;;;;;;;;;;5036217;28;20036;-79
2022/11/10 01:01:25;;;;;;;6.28;2.00;;;;;;;;;;5054653;28;20071;-79
2022/11/10 01:03:51;;;;;;;5.65;1.90;;;;;;;;;;5054035;28;20021;-79
2022/11/10 01:06:18;;;;;;;4.82;1.73;;;;;;;;;;5052820;28;20021;-79
2022/11/10 01:08:43;;;;;;;5.20;1.55;;;;;;;;;;5052848;28;20025;-79
2022/11/10 01:11:14;;;;;;;6.57;2.20;;;;;;;;;;5052550;28;20033;-78
2022/11/10 01:13:40;;;;;;;6.70;2.25;;;;;;;;;;5035610;28;20522;-78
2022/11/10 01:16:11;;;;;;;7.43;1.92;;;;;;;;;;5052579;28;20033;-78
2022/11/10 01:18:36;;;;;;;6.20;1.80;;;;;;;;;;5035789;28;20053;-78
2022/11/10 01:21:02;;;;;;;4.82;1.70;;;;;;;;;;5054041;28;20495;-78
2022/11/10 01:23:28;;;;;;;6.10;1.85;;;;;;;;;;5053915;28;20052;-78
2022/11/10 01:26:01;;;;;;;5.65;1.95;;;;;;;;;;5035687;28;20029;-78
2022/11/10 01:28:27;;;;;;;3.47;1.80;;;;;;;;;;5052754;28;20037;-78
2022/11/10 01:31:00;;;;;;;6.82;2.38;;;;;;;;;;5052427;28;20028;-78
2022/11/10 01:33:26;;;;;;;5.47;1.85;;;;;;;;;;5052518;28;20036;-78
2022/11/10 01:35:51;;;;;;;4.32;1.90;;;;;;;;;;5052318;28;20033;-78
2022/11/10 01:38:17;;;;;;;6.20;1.80;;;;;;;;;;5052565;28;20029;-79
2022/11/10 01:40:43;;;;;;;3.63;1.67;;;;;;;;;;5053756;28;20036;-78
2022/11/10 01:43:10;;;;;;;5.72;1.83;;;;;;;;;;5053613;28;20060;-78
2022/11/10 01:45:48;;;;;;;5.57;2.10;;;;;;;;;;5052475;28;20440;-78
2022/11/10 01:48:46;;;;;;;8.48;2.35;;;;;;;;;;5053580;28;20063;-79
2022/11/10 01:51:17;;;;;;;9.15;1.85;;;;;;;;;;5044215;28;20038;-79
2022/11/10 01:53:46;;;;;;;5.38;1.73;;;;;;;;;;5051933;28;20086;-79
2022/11/10 01:56:12;;;;;;;4.82;1.77;;;;;;;;;;5052041;28;20075;-78
2022/11/10 01:58:42;;;;;;;7.00;2.20;;;;;;;;;;5053489;28;20434;-78
2022/11/10 02:01:07;;;;;;;7.32;2.08;;;;;;;;;;5052168;28;20056;-78
2022/11/10 02:03:49;;;;;;;8.57;2.35;;;;;;;;;;5052126;28;20056;-78
2022/11/10 02:06:15;;;;;;;4.90;2.17;;;;;;;;;;5051971;28;20104;-79
2022/11/10 02:08:41;;;;;;;5.43;1.75;;;;;;;;;;5052926;28;20047;-78
2022/11/10 02:11:07;;;;;;;6.30;1.80;;;;;;;;;;5052150;28;20024;-79
2022/11/10 02:13:32;;;;;;;5.07;1.83;;;;;;;;;;5052650;28;20503;-79
2022/11/10 02:15:58;;;;;;;7.78;1.92;;;;;;;;;;5051943;28;20045;-78
2022/11/10 02:18:23;;;;;;;6.47;2.10;;;;;;;;;;5052979;28;20036;-78
2022/11/10 02:20:48;;;;;;;7.03;2.45;;;;;;;;;;5053345;28;20033;-78
2022/11/10 02:23:34;;;;;;;6.55;1.83;;;;;;;;;;5052907;28;20041;-78
2022/11/10 02:26:00;;;;;;;6.68;2.00;;;;;;;;;;5052617;28;20043;-78
2022/11/10 02:28:26;;;;;;;6.78;2.15;;;;;;;;;;5052897;28;20025;-78
2022/11/10 02:30:52;;;;;;;6.72;2.15;;;;;;;;;;5052806;28;20154;-78
2022/11/10 02:33:17;;;;;;;4.32;1.80;;;;;;;;;;5051561;28;20036;-78
2022/11/10 02:35:43;;;;;;;7.53;1.92;;;;;;;;;;5052740;28;20446;-78
2022/11/10 02:38:09;;;;;;;4.20;1.80;;;;;;;;;;5052839;28;20048;-78
2022/11/10 02:40:35;;;;;;;7.05;2.00;;;;;;;;;;5053052;28;20025;-78
2022/11/10 02:43:01;;;;;;;4.20;2.13;;;;;;;;;;5051477;28;20037;-78
2022/11/10 02:45:26;;;;;;;5.45;1.98;;;;;;;;;;5034788;28;20487;-79
2022/11/10 02:47:51;;;;;;;6.65;2.05;;;;;;;;;;5052676;28;20052;-78
2022/11/10 02:50:17;;;;;;;5.05;1.90;;;;;;;;;;5051274;28;20039;-78
2022/11/10 02:52:42;;;;;;;8.25;2.38;;;;;;;;;;5051467;28;20103;-79
2022/11/10 02:55:08;;;;;;;5.90;1.90;;;;;;;;;;5051207;28;20028;-79
2022/11/10 02:57:33;;;;;;;5.95;1.90;;;;;;;;;;5035318;28;20033;-78
2022/11/10 02:59:59;;;;;;;5.30;2.25;;;;;;;;;;5051712;28;20524;-78
2022/11/10 03:02:24;;;;;;;7.57;1.80;;;;;;;;;;5051176;28;20054;-78
2022/11/10 03:04:49;;;;;;;6.28;2.10;;;;;;;;;;5034475;28;20056;-78
2022/11/10 03:07:15;;;;;;;8.38;2.35;;;;;;;;;;5052341;28;20029;-78
2022/11/10 03:09:40;;;;;;;4.78;2.00;;;;;;;;;;5052350;28;20112;-79
2022/11/10 03:12:05;;;;;;;4.53;2.15;;;;;;;;;;5034381;28;20025;-78
2022/11/10 03:14:31;;;;;;;4.43;1.80;;;;;;;;;;5052067;28;20534;-79
2022/11/10 03:16:56;;;;;;;6.97;2.35;;;;;;;;;;5034454;28;20476;-78
2022/11/10 03:19:21;;;;;;;4.43;1.70;;;;;;;;;;5052193;28;20025;-78
2022/11/10 03:21:47;;;;;;;6.38;1.88;;;;;;;;;;5055553;28;20032;-78
2022/11/10 03:24:12;;;;;;;5.80;2.03;;;;;;;;;;5054554;28;20032;-79
2022/11/10 03:26:37;;;;;;;6.88;2.10;;;;;;;;;;5056047;28;20033;-79
2022/11/10 03:29:03;;;;;;;7.50;2.42;;;;;;;;;;5054803;28;20382;-78
2022/11/10 03:31:28;;;;;;;6.65;2.08;;;;;;;;;;5055764;28;20028;-79
2022/11/10 03:33:53;;;;;;;7.82;2.20;;;;;;;;;;5055804;28;20033;-79
2022/11/10 03:36:19;;;;;;;3.67;1.80;;;;;;;;;;5054749;28;20059;-79
2022/11/10 03:38:44;;;;;;;7.95;2.08;;;;;;;;;;5055906;28;20086;-79
2022/11/10 03:41:10;;;;;;;4.88;1.90;;;;;;;;;;5054291;28;20033;-79
2022/11/10 03:43:35;;;;;;;6.32;2.00;;;;;;;;;;5037671;28;20386;-79
2022/11/10 03:46:00;;;;;;;6.78;2.05;;;;;;;;;;5055416;28;20029;-79
2022/11/10 03:48:26;;;;;;;6.15;2.10;;;;;;;;;;5055781;28;20031;-79
2022/11/10 03:50:51;;;;;;;5.57;2.15;;;;;;;;;;5053997;28;20541;-79
2022/11/10 03:53:16;;;;;;;6.60;1.90;;;;;;;;;;5054050;28;20025;-79
2022/11/10 03:55:42;;;;;;;6.47;2.13;;;;;;;;;;5055579;28;20033;-78
2022/11/10 03:58:07;;;;;;;5.65;1.92;;;;;;;;;;5055519;28;20387;-78
2022/11/10 04:00:32;;;;;;;6.43;2.03;;;;;;;;;;5055198;28;20056;-78
2022/11/10 04:02:58;;;;;;;5.00;1.85;;;;;;;;;;5053941;28;20484;-79
2022/11/10 04:10:57;;;;;;;7.45;2.40;;;;;;;;;;5055220;28;20039;-79
2022/11/10 04:16:07;;;;;;;10.60;2.30;;;;;;;;;;5054505;28;20430;-79
2022/11/10 04:18:32;;;;;;;6.68;2.28;;;;;;;;;;5054913;28;20037;-79
2022/11/10 04:20:59;;;;;;;7.25;2.10;;;;;;;;;;5053876;28;20100;-78
2022/11/10 04:23:33;;;;;;;6.00;2.00;;;;;;;;;;5055201;28;20094;-79
2022/11/10 04:28:54;;;;;;;9.02;1.92;;;;;;;;;;5053639;28;20074;-79
2022/11/10 04:31:21;;;;;;;6.38;2.30;;;;;;;;;;5053319;28;20033;-79
2022/11/10 04:33:47;;;;;;;5.10;1.98;;;;;;;;;;5053448;28;20029;-79
2022/11/10 04:36:16;;;;;;;6.30;1.88;;;;;;;;;;5053242;28;20075;-78
2022/11/10 04:38:41;;;;;;;6.07;1.92;;;;;;;;;;5053314;28;20115;-78
2022/11/10 04:41:07;;;;;;;5.70;1.98;;;;;;;;;;5054923;28;20108;-78
2022/11/10 04:43:33;;;;;;;5.55;2.25;;;;;;;;;;5036557;28;20048;-78
2022/11/10 04:45:59;;;;;;;14.90;2.42;;;;;;;;;;5054292;28;20041;-78
2022/11/10 04:48:25;;;;;;;9.57;2.60;;;;;;;;;;5053345;28;20115;-78
2022/11/10 04:50:51;;;;;;;10.40;1.95;;;;;;;;;;5036300;28;20025;-78
2022/11/10 04:53:17;;;;;;;5.15;1.83;;;;;;;;;;5054055;28;20029;-79
2022/11/10 04:55:43;;;;;;;6.55;2.10;;;;;;;;;;5053128;28;20037;-78
2022/11/10 04:58:10;;;;;;;5.75;1.80;;;;;;;;;;5052822;28;20491;-78
2022/11/10 05:00:36;;;;;;;5.55;1.92;;;;;;;;;;5052521;28;20032;-79
2022/11/10 05:03:04;;;;;;;9.05;2.20;;;;;;;;;;5054306;28;20506;-78
2022/11/10 05:05:29;;;;;;;6.28;2.35;;;;;;;;;;5036533;28;20091;-78
2022/11/10 05:07:55;;;;;;;4.70;1.75;;;;;;;;;;5053304;28;20487;-78
2022/11/10 05:10:21;;;;;;;7.47;2.13;;;;;;;;;;5053313;28;20032;-79
2022/11/10 05:12:46;;;;;;;7.18;2.30;;;;;;;;;;5052874;28;20415;-78
2022/11/10 05:15:12;;;;;;;9.32;2.22;;;;;;;;;;5053247;28;20025;-78
2022/11/10 05:17:37;;;;;;;6.93;2.78;;;;;;;;;;5054264;28;20503;-78
2022/11/10 05:20:04;;;;;;;11.93;2.53;;;;;;;;;;5054054;28;20031;-78
2022/11/10 05:22:29;;;;;;;10.25;2.95;;;;;;;;;;5054254;28;20036;-78
2022/11/10 05:24:54;;;;;;;10.43;2.60;;;;;;;;;;5054347;28;20040;-79
2022/11/10 05:27:20;;;;;;;12.90;3.30;;;;;;;;;;5053008;28;20491;-79
2022/11/10 05:29:45;;;;;;;9.30;3.00;;;;;;;;;;5054138;28;20116;-78
2022/11/10 05:32:10;;;;;;;15.27;3.15;;;;;;;;;;5054428;28;20033;-79
2022/11/10 05:34:36;;;;;;;11.25;3.00;;;;;;;;;;5054064;28;20044;-80
2022/11/10 05:37:01;;;;;;;8.85;2.97;;;;;;;;;;5054078;28;20060;-79
2022/11/10 05:39:26;;;;;;;14.77;3.08;;;;;;;;;;5054071;28;20055;-80
2022/11/10 05:41:52;;;;;;;9.60;2.45;;;;;;;;;;5053778;28;20429;-80
2022/11/10 05:44:17;;;;;;;7.60;2.72;;;;;;;;;;5053508;28;20031;-80
2022/11/10 05:46:43;;;;;;;11.80;2.90;;;;;;;;;;5053577;28;20029;-80
2022/11/10 05:49:08;;;;;;;19.45;4.15;;;;;;;;;;5053800;28;20036;-80
2022/11/10 05:51:33;;;;;;;20.95;4.15;;;;;;;;;;5053517;28;20025;-79
2022/11/10 05:53:59;;;;;;;22.75;3.55;;;;;;;;;;5052401;28;20498;-79
2022/11/10 05:56:24;;;;;;;19.20;3.65;;;;;;;;;;5054116;28;20108;-79
2022/11/10 05:58:50;;;;;;;23.77;4.63;;;;;;;;;;5052315;28;20039;-79
2022/11/10 06:01:15;;;;;;;16.30;4.25;;;;;;;;;;5052142;28;20100;-80
2022/11/10 06:03:40;;;;;;;21.35;4.55;;;;;;;;;;5053742;28;20418;-80
2022/11/10 06:06:06;;;;;;;21.48;5.63;;;;;;;;;;5053343;28;20024;-77
2022/11/10 06:08:31;;;;;;;22.23;4.75;;;;;;;;;;5053194;28;20040;-79
2022/11/10 06:10:57;;;;;;;26.02;5.13;;;;;;;;;;5035430;28;20029;-80
2022/11/10 06:13:22;;;;;;;18.70;4.07;;;;;;;;;;5052105;28;20049;-79
2022/11/10 06:15:47;;;;;;;23.15;4.75;;;;;;;;;;5053249;28;20120;-79
2022/11/10 06:18:13;;;;;;;15.20;3.78;;;;;;;;;;5051947;28;20037;-80
2022/11/10 06:20:38;;;;;;;19.70;3.88;;;;;;;;;;5052273;28;20186;-79
2022/11/10 06:23:14;;;;;;;14.73;3.80;;;;;;;;;;5053143;28;20464;-79
2022/11/10 06:25:40;;;;;;;19.42;4.22;;;;;;;;;;5052078;28;20037;-79
2022/11/10 06:28:06;;;;;;;20.90;4.03;;;;;;;;;;5051989;28;20120;-79
2022/11/10 06:30:33;;;;;;;13.27;3.35;;;;;;;;;;5053153;28;20094;-79
2022/11/10 06:32:59;;;;;;;11.63;2.97;;;;;;;;;;5053493;28;20117;-79
2022/11/10 06:35:25;;;;;;;32.38;3.67;;;;;;;;;;5036130;28;20065;-79
2022/11/10 06:38:04;;;;;;;14.73;3.38;;;;;;;;;;5052228;28;20090;-79
2022/11/10 06:40:30;;;;;;;14.15;3.08;;;;;;;;;;5035118;28;20024;-79
2022/11/10 06:42:56;;;;;;;11.43;3.30;;;;;;;;;;5052293;28;20445;-79
2022/11/10 06:45:22;;;;;;;15.95;4.05;;;;;;;;;;5035435;28;20139;-79
2022/11/10 06:47:47;;;;;;;10.88;2.78;;;;;;;;;;5053959;28;20451;-79
2022/11/10 06:50:13;;;;;;;9.75;3.08;;;;;;;;;;5055381;28;20025;-79
2022/11/10 06:52:38;;;;;;;15.05;3.20;;;;;;;;;;5056849;28;20065;-79
2022/11/10 06:55:04;;;;;;;13.93;2.90;;;;;;;;;;5054931;28;20021;-78
2022/11/10 06:57:36;;;;;;;10.02;2.95;;;;;;;;;;5058813;28;20033;-79
2022/11/10 07:00:03;;;;;;;14.10;3.83;;;;;;;;;;5058354;28;20372;-78
2022/11/10 07:02:28;;;;;;;10.57;2.92;;;;;;;;;;5058346;28;20032;-79
2022/11/10 07:04:54;;;;;;;10.75;2.60;;;;;;;;;;5060161;28;20384;-79
2022/11/10 07:07:19;;;;;;;7.25;2.63;;;;;;;;;;5058861;28;20102;-79
2022/11/10 07:09:44;;;;;;;7.00;2.53;;;;;;;;;;5059036;28;20028;-79
2022/11/10 07:12:10;;;;;;;8.27;2.92;;;;;;;;;;5059692;28;20041;-79
2022/11/10 07:14:35;;;;;;;10.00;2.67;;;;;;;;;;5040517;28;20410;-79
2022/11/10 07:17:00;;;;;;;8.93;2.50;;;;;;;;;;5058433;28;20029;-79
2022/11/10 07:19:26;;;;;;;8.30;2.88;;;;;;;;;;5057657;28;20360;-79
2022/11/10 07:21:51;;;;;;;9.32;2.65;;;;;;;;;;5055581;28;20029;-79
2022/11/10 07:24:17;;;;;;;8.63;2.60;;;;;;;;;;5038951;28;20530;-79
2022/11/10 07:26:42;;;;;;;5.32;2.17;;;;;;;;;;5055441;28;20029;-79
2022/11/10 07:29:07;;;;;;;6.90;2.20;;;;;;;;;;5056858;28;20033;-80
2022/11/10 07:31:33;;;;;;;7.90;2.72;;;;;;;;;;5057481;28;20146;-79
2022/11/10 07:33:58;;;;;;;10.75;2.58;;;;;;;;;;5056234;28;20526;-79
2022/11/10 07:36:27;;;;;;;9.82;2.63;;;;;;;;;;5056408;28;20105;-79
2022/11/10 07:38:53;;;;;;;7.47;2.53;;;;;;;;;;5056885;28;20036;-79
2022/11/10 07:41:18;;;;;;;8.98;2.22;;;;;;;;;;5058449;28;20025;-79
2022/11/10 07:43:44;;;;;;;5.70;2.10;;;;;;;;;;5057748;28;20029;-79
2022/11/10 07:46:09;;;;;;;7.13;2.20;;;;;;;;;;5056628;28;20471;-79
2022/11/10 07:48:34;;;;;;;6.38;2.63;;;;;;;;;;5055029;28;20029;-78
2022/11/10 07:51:00;;;;;;;9.13;2.30;;;;;;;;;;5054630;28;20120;-79
2022/11/10 07:53:25;;;;;;;5.05;2.13;;;;;;;;;;5055945;28;20025;-79
2022/11/10 07:55:50;;;;;;;7.60;2.50;;;;;;;;;;5056082;28;20029;-79
2022/11/10 07:58:17;;;;;;;10.52;2.38;;;;;;;;;;5056242;28;20021;-79
2022/11/10 08:00:43;;;;;;;6.93;2.40;;;;;;;;;;5055269;28;20024;-79
2022/11/10 08:03:11;;;;;;;8.50;1.98;;;;;;;;;;5054407;28;20055;-79
2022/11/10 08:05:36;;;;;;;6.60;2.03;;;;;;;;;;5054579;28;20028;-79
2022/11/10 08:08:02;;;;;;;7.13;1.83;;;;;;;;;;5055835;28;20391;-79
2022/11/10 08:10:29;;;;;;;7.55;1.80;;;;;;;;;;5055393;28;20481;-79
2022/11/10 08:12:56;;;;;;;7.10;2.00;;;;;;;;;;5056483;28;20492;-79
2022/11/10 08:15:22;;;;;;;6.30;2.35;;;;;;;;;;5056785;28;20039;-79
2022/11/10 08:17:48;;;;;;;7.68;2.15;;;;;;;;;;5056115;28;20035;-79
2022/11/10 08:20:13;;;;;;;10.18;2.45;;;;;;;;;;5056217;28;20468;-79
2022/11/10 08:22:39;;;;;;;9.00;2.30;;;;;;;;;;5055413;28;20154;-80
2022/11/10 08:25:05;;;;;;;8.10;2.38;;;;;;;;;;5056472;28;20059;-77
2022/11/10 08:27:30;;;;;;;6.85;1.85;;;;;;;;;;5037551;28;20032;-80
2022/11/10 08:29:55;;;;;;;7.00;2.28;;;;;;;;;;5054538;28;20116;-79
2022/11/10 08:32:21;;;;;;;5.22;1.85;;;;;;;;;;5055631;28;20048;-79
2022/11/10 08:34:46;;;;;;;6.72;2.53;;;;;;;;;;5053716;28;20036;-79
2022/11/10 08:37:11;;;;;;;5.75;2.20;;;;;;;;;;5055213;28;20040;-79
2022/11/10 08:39:37;;;;;;;6.43;2.13;;;;;;;;;;5055460;28;20375;-79
2022/11/10 08:42:02;;;;;;;7.47;2.25;;;;;;;;;;5053776;28;20033;-79
2022/11/10 08:44:28;;;;;;;6.40;2.28;;;;;;;;;;5036855;28;20035;-79
2022/11/10 08:46:53;;;;;;;6.70;2.15;;;;;;;;;;5053375;28;20025;-79
2022/11/10 08:49:18;;;;;;;8.13;2.20;;;;;;;;;;5054665;28;20189;-79
2022/11/10 08:51:44;;;;;;;5.10;2.08;;;;;;;;;;5036769;28;20045;-79
2022/11/10 08:54:09;;;;;;;6.70;2.10;;;;;;;;;;5054646;28;20033;-77
2022/11/10 08:56:34;;;;;;;6.85;2.10;;;;;;;;;;5054517;28;20205;-78
2022/11/10 08:59:00;;;;;;;7.55;2.25;;;;;;;;;;5054027;28;20044;-79
2022/11/10 09:01:25;;;;;;;5.05;2.00;;;;;;;;;;5053564;28;20489;-78
2022/11/10 09:03:50;;;;;;;5.57;2.10;;;;;;;;;;5054912;28;20025;-78
2022/11/10 09:06:16;;;;;;;7.28;2.20;;;;;;;;;;5055228;28;20029;-78
2022/11/10 09:08:41;;;;;;;9.75;2.10;;;;;;;;;;5054912;28;20029;-79
2022/11/10 09:11:07;;;;;;;7.30;1.80;;;;;;;;;;5053385;28;20491;-77
2022/11/10 09:13:33;;;;;;;5.50;1.92;;;;;;;;;;5052776;28;20102;-77
2022/11/10 09:16:03;;;;;;;6.05;2.05;;;;;;;;;;5053295;28;20039;-77
2022/11/10 09:18:29;;;;;;;10.43;2.55;;;;;;;;;;5052164;28;20029;-77
2022/11/10 09:20:54;;;;;;;6.13;2.10;;;;;;;;;;5053286;28;20116;-79
2022/11/10 09:23:20;;;;;;;6.50;1.70;;;;;;;;;;5054048;28;20056;-79
2022/11/10 09:25:51;;;;;;;8.88;2.05;;;;;;;;;;5052840;28;20031;-79
2022/11/10 09:28:18;;;;;;;13.50;2.30;;;;;;;;;;5053083;28;20021;-79
2022/11/10 09:30:51;;;;;;;9.05;2.33;;;;;;;;;;5052880;28;20044;-79
2022/11/10 09:33:16;;;;;;;6.20;1.80;;;;;;;;;;5054147;28;20057;-80
2022/11/10 09:35:42;;;;;;;8.35;2.33;;;;;;;;;;5035986;28;20088;-79
2022/11/10 09:38:07;;;;;;;10.90;2.20;;;;;;;;;;5054128;28;20033;-80
2022/11/10 09:40:51;;;;;;;7.65;2.15;;;;;;;;;;5054111;28;20033;-79
2022/11/10 09:43:22;;;;;;;10.80;2.10;;;;;;;;;;5054329;28;20033;-77
2022/11/10 09:45:50;;;;;;;9.07;2.00;;;;;;;;;;5052478;28;20025;-77
2022/11/10 09:48:21;;;;;;;7.18;2.08;;;;;;;;;;5052734;28;20040;-78
2022/11/10 09:50:51;;;;;;;7.50;2.03;;;;;;;;;;5035766;28;20033;-81
2022/11/10 09:53:22;;;;;;;5.65;2.03;;;;;;;;;;5035465;28;20480;-80
2022/11/10 09:55:49;;;;;;;11.52;2.63;;;;;;;;;;5053749;28;20033;-78
2022/11/10 09:58:15;;;;;;;7.40;1.98;;;;;;;;;;5052560;28;20050;-78
2022/11/10 10:00:49;;;;;;;6.95;1.90;;;;;;;;;;5052793;28;20107;-77
2022/11/10 10:03:21;;;;;;;7.47;2.13;;;;;;;;;;5052213;28;20032;-79
2022/11/10 10:05:52;;;;;;;7.03;2.10;;;;;;;;;;5053337;28;20041;-79
2022/11/10 10:08:33;;;;;;;6.00;1.75;;;;;;;;;;5037661;28;20450;-80
2022/11/10 10:11:04;;;;;;;6.47;2.13;;;;;;;;;;5072322;28;20162;-79
2022/11/10 10:13:54;;;;;;;8.55;2.35;;;;;;;;;;5073646;28;20056;-80
2022/11/10 10:16:30;;;;;;;7.53;2.03;;;;;;;;;;5073428;28;20040;-79
2022/11/10 10:19:19;;;;;;;9.38;2.20;;;;;;;;;;5055263;28;20048;-79
2022/11/10 10:22:25;;;;;;;7.45;2.03;;;;;;;;;;5073223;28;20025;-79
2022/11/10 10:24:52;;;;;;;7.68;1.90;;;;;;;;;;5072344;28;20128;-79
2022/11/10 10:27:21;;;;;;;7.68;2.10;;;;;;;;;;5071993;28;20095;-79
2022/11/10 10:29:50;;;;;;;8.88;2.22;;;;;;;;;;5057222;28;20483;-79
2022/11/10 10:32:16;;;;;;;6.72;2.28;;;;;;;;;;5077961;28;20056;-80
2022/11/10 10:34:43;;;;;;;5.50;2.13;;;;;;;;;;5075786;28;20048;-81
2022/11/10 10:37:29;;;;;;;7.60;1.80;;;;;;;;;;5076056;28;20383;-80
2022/11/10 10:39:54;;;;;;;10.05;2.17;;;;;;;;;;5077721;28;20471;-78
2022/11/10 10:42:32;;;;;;;7.80;1.70;;;;;;;;;;5077117;28;20044;-78
2022/11/10 10:45:24;;;;;;;9.48;2.45;;;;;;;;;;5076419;28;20024;-79
2022/11/10 10:47:52;;;;;;;13.55;1.90;;;;;;;;;;5069222;28;20036;-78
2022/11/10 10:50:30;;;;;;;5.63;1.88;;;;;;;;;;5076125;28;20077;-78
2022/11/10 10:53:07;;;;;;;16.83;2.38;;;;;;;;;;5075943;28;20036;-77
2022/11/10 10:55:37;;;;;;;7.35;2.20;;;;;;;;;;5058897;28;20379;-78
2022/11/10 10:58:05;;;;;;;6.85;1.92;;;;;;;;;;5075882;28;20082;-78
2022/11/10 11:00:32;;;;;;;9.20;2.00;;;;;;;;;;5058839;28;20390;-78
2022/11/10 11:03:02;;;;;;;9.50;1.85;;;;;;;;;;5077299;28;20020;-78
2022/11/10 11:05:28;;;;;;;7.13;1.80;;;;;;;;;;5076883;28;20067;-78
2022/11/10 11:07:58;;;;;;;13.48;2.08;;;;;;;;;;5059080;28;20462;-78
2022/11/10 11:10:28;;;;;;;6.78;2.13;;;;;;;;;;5075395;28;20107;-78
2022/11/10 11:12:53;;;;;;;8.32;2.53;;;;;;;;;;5075271;28;20378;-79
2022/11/10 11:15:19;;;;;;;6.93;2.22;;;;;;;;;;5075231;28;20037;-78
2022/11/10 11:17:58;;;;;;;8.93;1.98;;;;;;;;;;5076446;28;20020;-78
2022/11/10 11:21:02;;;;;;;14.68;2.15;;;;;;;;;;5058167;28;20115;-78
2022/11/10 11:23:33;;;;;;;16.38;2.30;;;;;;;;;;5044610;28;20034;-78
2022/11/10 11:26:09;;;;;;;10.00;2.28;;;;;;;;;;5075073;28;20028;-79
2022/11/10 11:28:54;;;;;;;7.97;2.15;;;;;;;;;;5075229;28;20055;-78
2022/11/10 11:31:36;;;;;;;8.30;1.95;;;;;;;;;;5058226;28;20425;-79
2022/11/10 11:34:43;;;;;;;6.13;1.77;;;;;;;;;;5058061;28;20096;-78
2022/11/10 11:37:17;;;;;;;11.68;1.92;;;;;;;;;;5014141;28;20034;-78
2022/11/10 11:39:59;;;;;;;9.60;2.25;;;;;;;;;;5069162;28;20032;-79
2022/11/10 11:43:08;;;;;;;11.07;2.17;;;;;;;;;;5074270;28;20028;-78
2022/11/10 11:46:11;;;;;;;10.52;2.13;;;;;;;;;;5034149;28;20036;-78
2022/11/10 11:48:58;;;;;;;12.32;2.15;;;;;;;;;;5074637;28;20020;-79
2022/11/10 11:51:56;;;;;;;9.25;2.63;;;;;;;;;;5075799;28;20091;-79
2022/11/10 11:54:47;;;;;;;9.77;2.28;;;;;;;;;;5050545;28;20028;-78
2022/11/10 11:57:29;;;;;;;7.70;2.25;;;;;;;;;;5072415;28;20536;-79
2022/11/10 12:00:09;;;;;;;6.35;2.08;;;;;;;;;;5074286;28;20036;-78
2022/11/10 12:02:43;;;;;;;5.65;2.10;;;;;;;;;;5074641;28;20506;-78
2022/11/10 12:05:27;;;;;;;8.60;2.30;;;;;;;;;;5075486;28;20459;-78
2022/11/10 12:08:15;;;;;;;9.63;2.50;;;;;;;;;;5074147;28;20059;-79
2022/11/10 12:10:58;;;;;;;8.88;1.98;;;;;;;;;;5075334;28;20391;-79
2022/11/10 12:13:37;;;;;;;6.73;2.13;;;;;;;;;;5073825;28;20135;-79
2022/11/10 12:16:21;;;;;;;13.38;2.50;;;;;;;;;;5057324;28;20028;-79
2022/11/10 12:18:55;;;;;;;7.82;2.13;;;;;;;;;;5073996;28;20031;-79
2022/11/10 12:21:50;;;;;;;9.77;2.55;;;;;;;;;;5057106;28;20028;-78
2022/11/10 12:24:37;;;;;;;11.20;2.28;;;;;;;;;;5057247;28;20024;-79
2022/11/10 12:27:10;;;;;;;6.95;2.20;;;;;;;;;;5073775;28;20048;-79
2022/11/10 12:29:42;;;;;;;9.75;2.20;;;;;;;;;;5073809;28;20025;-78
2022/11/10 12:32:16;;;;;;;8.88;2.38;;;;;;;;;;5073568;28;20391;-79
2022/11/10 12:34:49;;;;;;;8.50;2.42;;;;;;;;;;5056880;28;20024;-78
2022/11/10 12:37:20;;;;;;;7.50;2.67;;;;;;;;;;5056839;28;20453;-79
2022/11/10 12:39:56;;;;;;;8.32;2.17;;;;;;;;;;5074043;28;20028;-77
2022/11/10 12:42:25;;;;;;;5.72;1.73;;;;;;;;;;5073548;28;20119;-78
2022/11/10 12:45:00;;;;;;;6.85;1.95;;;;;;;;;;5056665;28;20471;-77
2022/11/10 12:47:35;;;;;;;8.35;2.25;;;;;;;;;;5073521;28;20044;-77
2022/11/10 12:50:23;;;;;;;8.70;2.13;;;;;;;;;;5073465;28;20376;-77
2022/11/10 12:52:54;;;;;;;7.82;2.20;;;;;;;;;;5033423;28;20463;-77
2022/11/10 12:55:44;;;;;;;9.40;2.58;;;;;;;;;;5073458;28;20021;-77
2022/11/10 12:58:12;;;;;;;11.27;2.50;;;;;;;;;;5073911;28;20050;-77
2022/11/10 13:00:59;;;;;;;8.85;2.22;;;;;;;;;;5056774;28;20028;-77
2022/11/10 13:03:33;;;;;;;8.63;1.83;;;;;;;;;;5073292;28;20029;-77
2022/11/10 13:06:04;;;;;;;10.93;2.42;;;;;;;;;;5073185;28;20493;-77
2022/11/10 13:08:36;;;;;;;8.13;2.35;;;;;;;;;;5073647;28;20078;-77
2022/11/10 13:11:06;;;;;;;10.18;2.58;;;;;;;;;;5073179;28;20055;-77
2022/11/10 13:13:53;;;;;;;9.95;2.03;;;;;;;;;;5074389;28;20044;-77
2022/11/10 13:16:40;;;;;;;7.78;2.35;;;;;;;;;;5073070;28;20035;-77
2022/11/10 13:19:10;;;;;;;7.55;2.53;;;;;;;;;;5074240;28;20021;-78
2022/11/10 13:21:50;;;;;;;10.82;3.17;;;;;;;;;;5073760;28;20090;-78
2022/11/10 13:24:43;;;;;;;11.98;2.78;;;;;;;;;;5073615;28;20017;-79
2022/11/10 13:27:32;;;;;;;6.85;2.83;;;;;;;;;;5074536;28;20032;-77
2022/11/10 13:29:58;;;;;;;9.10;2.83;;;;;;;;;;5074213;28;20050;-80
2022/11/10 13:32:32;;;;;;;12.38;3.33;;;;;;;;;;5075273;28;20479;-79
2022/11/10 13:35:29;;;;;;;14.18;2.95;;;;;;;;;;5073324;28;20021;-79
2022/11/10 13:37:58;;;;;;;10.50;3.35;;;;;;;;;;5068691;28;20036;-79
2022/11/10 13:40:28;;;;;;;16.20;3.88;;;;;;;;;;5073935;28;20036;-79
2022/11/10 13:42:56;;;;;;;14.23;3.33;;;;;;;;;;5074418;28;20142;-79
2022/11/10 13:45:31;;;;;;;11.77;3.88;;;;;;;;;;5074211;28;20050;-79
2022/11/10 13:48:05;;;;;;;13.52;3.97;;;;;;;;;;5056386;28;20075;-78
2022/11/10 13:50:40;;;;;;;10.70;4.25;;;;;;;;;;5074460;28;20020;-79
2022/11/10 13:53:27;;;;;;;10.18;3.50;;;;;;;;;;5073867;28;20024;-78
2022/11/10 13:56:17;;;;;;;15.43;4.18;;;;;;;;;;5073999;28;20068;-79
2022/11/10 13:58:43;;;;;;;14.30;4.00;;;;;;;;;;5055791;28;20020;-78
2022/11/10 14:01:18;;;;;;;13.05;4.35;;;;;;;;;;5073919;28;20051;-79
2022/11/10 14:03:52;;;;;;;11.30;3.45;;;;;;;;;;5073335;28;20025;-78
2022/11/10 14:06:28;;;;;;;9.52;3.90;;;;;;;;;;5072029;28;20364;-78
2022/11/10 14:09:18;;;;;;;12.00;3.50;;;;;;;;;;5072120;28;20107;-79
2022/11/10 14:11:51;;;;;;;8.57;3.60;;;;;;;;;;5072707;28;20041;-79
2022/11/10 14:14:26;;;;;;;9.48;3.90;;;;;;;;;;5071833;28;20495;-79
2022/11/10 14:16:52;;;;;;;;;;;;;;;;;;5072562;28;20552;-76
2022/11/10 14:19:24;;;;;;;9.40;3.63;;;;;;;;;;5073244;28;19908;-79
2022/11/10 14:21:55;;;;;;;8.63;3.20;;;;;;;;;;5073530;28;20035;-79
2022/11/10 14:24:34;;;;;;;10.25;3.78;;;;;;;;;;5072392;28;20021;-77
2022/11/10 14:27:06;;;;;;;11.00;3.28;;;;;;;;;;5072023;28;20025;-77
2022/11/10 14:29:39;;;;;;;8.32;3.03;;;;;;;;;;5068883;28;20463;-77
2022/11/10 14:32:13;;;;;;;11.53;3.00;;;;;;;;;;5071891;28;20040;-77
2022/11/10 14:34:45;;;;;;;6.43;2.83;;;;;;;;;;5054862;28;20066;-77
2022/11/10 14:37:16;;;;;;;8.15;3.05;;;;;;;;;;5072789;28;20099;-77
2022/11/10 14:39:42;;;;;;;11.32;2.92;;;;;;;;;;5054825;28;20052;-77
2022/11/10 14:42:13;;;;;;;9.10;2.70;;;;;;;;;;5071989;28;20055;-77
2022/11/10 14:44:39;;;;;;;9.60;3.08;;;;;;;;;;5071834;28;20052;-77
2022/11/10 14:47:27;;;;;;;11.18;2.78;;;;;;;;;;5071953;28;20064;-77
2022/11/10 14:50:11;;;;;;;9.27;2.88;;;;;;;;;;5071952;28;20020;-77
2022/11/10 14:52:39;;;;;;;7.82;2.92;;;;;;;;;;5075056;28;20060;-77
2022/11/10 14:55:07;;;;;;;6.80;2.70;;;;;;;;;;5051740;28;20545;-77
2022/11/10 14:57:33;;;;;;;9.70;2.70;;;;;;;;;;5051290;28;20099;-77
2022/11/10 14:59:58;;;;;;;10.95;2.97;;;;;;;;;;5051634;28;20033;-77
2022/11/10 15:02:23;;;;;;;9.73;2.90;;;;;;;;;;5051874;28;20025;-77
2022/11/10 15:04:50;;;;;;;9.07;2.72;;;;;;;;;;5051529;28;20031;-77
2022/11/10 15:07:16;;;;;;;5.40;2.15;;;;;;;;;;5051519;28;20033;-77
2022/11/10 15:10:03;;;;;;;9.55;3.45;;;;;;;;;;5051096;28;20033;-77